Time;durP1;ratioP1;P1;durP2;ratioP2;P2;SDS_P1;SDS_P2;PMS_P1;PMS_P2;Temp;Humidity;BMP_temperature;BMP_pressure;BME280_temperature;BME280_humidity;BME280_pressure;Samples;Min_cycle;Max_cycle;Signal;HPM_P1;HPM_P2
2023/08/13 00:00:10;;;;;;;29.33;25.20;;;21.30;99.90;;;;;;5033305;28;20025;-73
2023/08/13 00:02:36;;;;;;;22.73;20.52;;;21.20;99.90;;;;;;5032389;28;20033;-73
2023/08/13 00:05:04;;;;;;;22.75;18.45;;;21.20;99.90;;;;;;5033512;28;20036;-73
2023/08/13 00:07:30;;;;;;;24.92;16.65;;;21.30;99.90;;;;;;5033452;28;20368;-73
2023/08/13 00:09:56;;;;;;;17.10;13.95;;;21.30;99.90;;;;;;5033227;28;20033;-73
2023/08/13 00:12:22;;;;;;;21.15;16.45;;;21.30;99.90;;;;;;5031930;28;20395;-73
2023/08/13 00:14:48;;;;;;;20.83;17.52;;;21.30;99.90;;;;;;5032375;28;20030;-73
2023/08/13 00:17:14;;;;;;;23.23;15.35;;;21.40;99.90;;;;;;5032710;28;20561;-73
2023/08/13 00:19:41;;;;;;;21.05;18.63;;;21.30;99.90;;;;;;5033189;28;20032;-73
2023/08/13 00:22:07;;;;;;;21.02;18.80;;;21.30;99.90;;;;;;5033659;28;20053;-73
2023/08/13 00:24:33;;;;;;;23.17;19.33;;;21.30;99.90;;;;;;5031590;28;20022;-73
2023/08/13 00:26:59;;;;;;;21.50;17.17;;;21.30;99.90;;;;;;5031683;28;20402;-73
2023/08/13 00:29:25;;;;;;;21.30;18.25;;;21.30;99.90;;;;;;5033168;28;20029;-73
2023/08/13 00:31:54;;;;;;;25.73;22.80;;;21.20;99.90;;;;;;5031044;28;20414;-73
2023/08/13 00:34:21;;;;;;;25.20;22.33;;;21.20;99.90;;;;;;5033040;28;20037;-73
2023/08/13 00:36:47;;;;;;;22.92;20.67;;;21.20;99.90;;;;;;5030905;28;20045;-73
2023/08/13 00:39:13;;;;;;;22.30;17.83;;;21.20;99.90;;;;;;5032567;28;20032;-73
2023/08/13 00:41:39;;;;;;;25.25;17.23;;;21.20;99.90;;;;;;5032719;28;20033;-73
2023/08/13 00:44:06;;;;;;;28.85;24.67;;;21.10;99.90;;;;;;5031531;28;20025;-73
2023/08/13 00:46:32;;;;;;;39.85;36.60;;;21.10;99.90;;;;;;5030979;28;20101;-73
2023/08/13 00:48:58;;;;;;;28.25;25.45;;;21.10;99.90;;;;;;5031409;28;20032;-73
2023/08/13 00:51:25;;;;;;;28.90;25.85;;;21.10;99.90;;;;;;5031173;28;20286;-73
2023/08/13 00:53:51;;;;;;;24.73;21.77;;;21.00;99.90;;;;;;5031154;28;20033;-73
2023/08/13 00:56:17;;;;;;;28.23;22.73;;;21.00;99.90;;;;;;5031276;28;20029;-73
2023/08/13 00:58:43;;;;;;;27.20;24.40;;;21.00;99.90;;;;;;5031495;28;20037;-73
2023/08/13 01:01:10;;;;;;;26.92;24.52;;;20.90;99.90;;;;;;5031895;28;20406;-73
2023/08/13 01:03:37;;;;;;;26.90;22.23;;;20.90;99.90;;;;;;5031350;28;20025;-73
2023/08/13 01:06:37;;;;;;;22.40;19.95;;;20.90;99.90;;;;;;5032267;28;20026;-73
2023/08/13 01:09:11;;;;;;;30.25;26.67;;;20.90;99.90;;;;;;5030988;28;20028;-73
2023/08/13 01:12:21;;;;;;;30.52;21.58;;;20.90;99.90;;;;;;5030992;28;20378;-73
2023/08/13 01:14:47;;;;;;;25.60;23.05;;;20.90;99.90;;;;;;4990767;28;20042;-73
2023/08/13 01:17:13;;;;;;;25.63;23.05;;;20.80;99.90;;;;;;4990062;28;20035;-73
2023/08/13 01:19:39;;;;;;;32.67;29.60;;;20.80;99.90;;;;;;4974325;28;20573;-73
2023/08/13 01:22:05;;;;;;;21.52;18.95;;;20.80;99.90;;;;;;4990262;28;20061;-73
2023/08/13 01:24:31;;;;;;;33.25;30.30;;;20.80;99.90;;;;;;4990852;28;20157;-73
2023/08/13 01:27:00;;;;;;;24.92;16.88;;;20.80;99.90;;;;;;4990456;28;20038;-73
2023/08/13 01:29:37;;;;;;;27.20;24.20;;;20.80;99.90;;;;;;4990789;28;20467;-73
2023/08/13 01:32:03;;;;;;;64.28;59.80;;;20.70;99.90;;;;;;4956327;28;20046;-73
2023/08/13 01:34:30;;;;;;;78.35;73.43;;;20.80;99.90;;;;;;4955108;28;20031;-73
2023/08/13 01:36:56;;;;;;;33.58;30.52;;;20.80;99.90;;;;;;4938717;28;20050;-74
2023/08/13 01:39:22;;;;;;;26.27;20.20;;;20.70;99.90;;;;;;4955176;28;20035;-73
2023/08/13 01:41:53;;;;;;;31.35;27.85;;;20.70;99.90;;;;;;4954766;28;20434;-73
2023/08/13 01:44:20;;;;;;;26.08;18.38;;;20.70;99.90;;;;;;4954601;28;20464;-73
2023/08/13 01:46:46;;;;;;;24.40;22.05;;;20.70;99.90;;;;;;4954317;28;20035;-74
2023/08/13 01:49:12;;;;;;;23.75;20.67;;;20.70;99.90;;;;;;4972501;28;20390;-73
2023/08/13 01:51:38;;;;;;;32.35;24.92;;;20.70;99.90;;;;;;5003863;28;20517;-73
2023/08/13 01:54:05;;;;;;;27.27;24.42;;;20.70;99.90;;;;;;5010991;28;20050;-73
2023/08/13 01:56:31;;;;;;;28.98;23.80;;;20.70;99.90;;;;;;5013328;28;20045;-73
2023/08/13 01:58:57;;;;;;;24.48;21.85;;;20.70;99.90;;;;;;5012550;28;20035;-73
2023/08/13 02:01:23;;;;;;;31.30;28.25;;;20.70;99.90;;;;;;5008378;28;20030;-73
2023/08/13 02:03:49;;;;;;;20.60;14.35;;;20.70;99.90;;;;;;5009595;28;20030;-73
2023/08/13 02:06:16;;;;;;;32.95;21.70;;;20.70;99.90;;;;;;5014019;28;20037;-73
2023/08/13 02:08:42;;;;;;;29.30;23.98;;;20.70;99.90;;;;;;5014889;28;20030;-73
2023/08/13 02:11:08;;;;;;;45.47;41.60;;;20.60;99.90;;;;;;5013103;28;20041;-73
2023/08/13 02:13:34;;;;;;;54.33;49.95;;;20.60;99.90;;;;;;5014555;28;20042;-73
2023/08/13 02:16:04;;;;;;;26.70;23.95;;;20.60;99.90;;;;;;5013858;28;20022;-73
2023/08/13 02:18:30;;;;;;;23.75;16.55;;;20.60;99.90;;;;;;5019935;28;20045;-73
2023/08/13 02:20:56;;;;;;;30.85;27.67;;;20.60;99.90;;;;;;5012607;28;20034;-73
2023/08/13 02:23:22;;;;;;;32.15;28.83;;;20.60;99.90;;;;;;5014373;28;20047;-73
2023/08/13 02:25:49;;;;;;;59.85;55.38;;;20.60;99.90;;;;;;5014367;28;20498;-73
2023/08/13 02:28:15;;;;;;;23.60;19.20;;;20.50;99.90;;;;;;5013223;28;20053;-73
2023/08/13 02:30:41;;;;;;;38.30;34.83;;;20.50;99.90;;;;;;5013659;28;20030;-74
2023/08/13 02:33:07;;;;;;;47.13;43.20;;;20.50;99.90;;;;;;5013066;28;20057;-74
2023/08/13 02:35:33;;;;;;;37.40;34.13;;;20.50;99.90;;;;;;5013719;28;20390;-73
2023/08/13 02:37:59;;;;;;;45.83;41.85;;;20.50;99.90;;;;;;5015176;28;20026;-73
2023/08/13 02:40:25;;;;;;;32.67;29.58;;;20.50;99.90;;;;;;5013845;28;20387;-74
2023/08/13 02:42:51;;;;;;;25.90;22.88;;;20.50;99.90;;;;;;5015426;28;20022;-73
2023/08/13 02:45:18;;;;;;;24.38;21.65;;;20.50;99.90;;;;;;5013484;28;20360;-73
2023/08/13 02:47:44;;;;;;;36.30;33.15;;;20.40;99.90;;;;;;5015131;28;20034;-73
2023/08/13 02:50:10;;;;;;;37.10;33.42;;;20.40;99.90;;;;;;5014877;28;20033;-73
2023/08/13 02:52:36;;;;;;;22.73;18.75;;;20.40;99.90;;;;;;5014963;28;20498;-73
2023/08/13 02:55:02;;;;;;;28.13;21.50;;;20.40;99.90;;;;;;5013843;28;20033;-73
2023/08/13 02:57:28;;;;;;;23.83;17.30;;;20.40;99.90;;;;;;5014885;28;20033;-74
2023/08/13 02:59:54;;;;;;;39.13;32.58;;;20.30;99.90;;;;;;5013768;28;20022;-73
2023/08/13 03:02:20;;;;;;;26.95;20.90;;;20.30;99.90;;;;;;5014152;28;20041;-73
2023/08/13 03:04:46;;;;;;;23.13;13.30;;;20.30;99.90;;;;;;5014581;28;20030;-73
2023/08/13 03:07:13;;;;;;;22.98;19.75;;;20.30;99.90;;;;;;5013290;28;20045;-73
2023/08/13 03:09:39;;;;;;;29.55;24.13;;;20.30;99.90;;;;;;5013773;28;20037;-73
2023/08/13 03:12:05;;;;;;;25.02;18.75;;;20.30;99.90;;;;;;5014598;28;20530;-73
2023/08/13 03:14:31;;;;;;;27.40;21.73;;;20.30;99.90;;;;;;5014661;28;20030;-73
2023/08/13 03:16:57;;;;;;;27.27;24.40;;;20.30;99.90;;;;;;5014057;28;20052;-73
2023/08/13 03:19:24;;;;;;;31.25;28.23;;;20.30;99.90;;;;;;5014348;28;20037;-73
2023/08/13 03:21:50;;;;;;;40.47;36.60;;;20.30;99.90;;;;;;5013265;28;20048;-73
2023/08/13 03:24:16;;;;;;;48.35;44.28;;;20.30;99.90;;;;;;5014599;28;20049;-73
2023/08/13 03:26:42;;;;;;;25.10;22.02;;;20.20;99.90;;;;;;5013013;28;20038;-74
2023/08/13 03:29:08;;;;;;;25.40;20.40;;;20.20;99.90;;;;;;5014565;28;20386;-74
2023/08/13 03:31:34;;;;;;;25.08;21.08;;;20.20;99.90;;;;;;5012319;28;20053;-73
2023/08/13 03:34:00;;;;;;;26.60;18.02;;;20.10;99.90;;;;;;5012761;28;20054;-73
2023/08/13 03:36:26;;;;;;;24.80;16.27;;;20.10;99.90;;;;;;5012936;28;20041;-73
2023/08/13 03:38:52;;;;;;;30.88;26.73;;;20.10;99.90;;;;;;5014274;28;20026;-73
2023/08/13 03:41:18;;;;;;;37.20;33.85;;;20.10;99.90;;;;;;5013945;28;20037;-73
2023/08/13 03:43:44;;;;;;;25.65;21.63;;;20.00;99.90;;;;;;5014140;28;20026;-73
2023/08/13 03:46:10;;;;;;;35.30;31.95;;;20.00;99.90;;;;;;5013518;28;20034;-73
2023/08/13 03:48:36;;;;;;;35.65;31.40;;;20.00;99.90;;;;;;5012750;28;20368;-73
2023/08/13 03:51:06;;;;;;;33.67;27.77;;;20.00;99.90;;;;;;5013600;28;20093;-73
2023/08/13 03:53:32;;;;;;;24.02;21.75;;;19.90;99.90;;;;;;5012776;28;20041;-73
2023/08/13 03:55:58;;;;;;;31.38;25.38;;;19.90;99.90;;;;;;5013672;28;20030;-73
2023/08/13 03:58:24;;;;;;;29.65;26.35;;;19.80;99.90;;;;;;5012785;28;20029;-73
2023/08/13 04:00:50;;;;;;;25.48;21.30;;;19.90;99.90;;;;;;5011975;28;20041;-72
2023/08/13 04:03:16;;;;;;;26.08;21.30;;;19.90;99.90;;;;;;5013347;28;20037;-73
2023/08/13 04:05:42;;;;;;;29.77;18.55;;;19.90;99.90;;;;;;5013497;28;20136;-73
2023/08/13 04:08:08;;;;;;;26.27;22.90;;;19.90;99.90;;;;;;5012782;28;20033;-73
2023/08/13 04:10:34;;;;;;;26.13;22.55;;;19.90;99.90;;;;;;5013429;28;20033;-73
2023/08/13 04:13:00;;;;;;;42.58;38.40;;;19.90;99.90;;;;;;5013400;28;20034;-73
2023/08/13 04:15:29;;;;;;;35.78;32.35;;;19.80;99.90;;;;;;5012969;28;20044;-74
2023/08/13 04:17:55;;;;;;;31.52;26.90;;;19.80;99.90;;;;;;5011601;28;20107;-73
2023/08/13 04:20:21;;;;;;;32.80;29.48;;;19.80;99.90;;;;;;5013439;28;20029;-73
2023/08/13 04:22:48;;;;;;;27.80;20.80;;;19.80;99.90;;;;;;5013575;28;20494;-73
2023/08/13 04:25:14;;;;;;;33.65;28.10;;;19.80;99.90;;;;;;5011620;28;20034;-73
2023/08/13 04:27:40;;;;;;;30.42;27.65;;;19.80;99.90;;;;;;5013494;28;20030;-73
2023/08/13 04:30:06;;;;;;;40.25;36.33;;;19.70;99.90;;;;;;5012973;28;20490;-73
2023/08/13 04:32:36;;;;;;;36.30;32.75;;;19.70;99.90;;;;;;5012635;28;20041;-73
2023/08/13 04:35:02;;;;;;;44.17;40.10;;;19.70;99.90;;;;;;5011931;28;20033;-73
2023/08/13 04:37:28;;;;;;;51.30;46.53;;;19.60;99.90;;;;;;5012140;28;20022;-73
2023/08/13 04:39:57;;;;;;;46.05;42.58;;;19.70;99.90;;;;;;5013192;28;20387;-73
2023/08/13 04:42:23;;;;;;;41.85;38.22;;;19.70;99.90;;;;;;5013138;28;20029;-73
2023/08/13 04:44:49;;;;;;;29.40;26.35;;;19.60;99.90;;;;;;5011786;28;20037;-73
2023/08/13 04:47:15;;;;;;;35.00;31.50;;;19.60;99.90;;;;;;5012710;28;20030;-73
2023/08/13 04:49:41;;;;;;;29.98;20.45;;;19.60;99.90;;;;;;5012951;28;20030;-73
2023/08/13 04:52:07;;;;;;;25.98;17.48;;;19.60;99.90;;;;;;5011627;28;20395;-73
2023/08/13 04:54:33;;;;;;;27.23;24.60;;;19.60;99.90;;;;;;5012963;28;20046;-73
2023/08/13 04:57:01;;;;;;;26.42;22.23;;;19.60;99.90;;;;;;5013308;28;20054;-73
2023/08/13 04:59:27;;;;;;;28.27;25.33;;;19.50;99.90;;;;;;5012775;28;20042;-73
2023/08/13 05:01:53;;;;;;;29.08;25.63;;;19.50;99.90;;;;;;5012495;28;20041;-73
2023/08/13 05:04:19;;;;;;;31.50;26.50;;;19.50;99.90;;;;;;4995593;28;20398;-73
2023/08/13 05:06:45;;;;;;;30.73;27.80;;;19.40;99.90;;;;;;5012793;28;20026;-73
2023/08/13 05:09:11;;;;;;;27.90;24.38;;;19.40;99.90;;;;;;5012878;28;20033;-73
2023/08/13 05:11:37;;;;;;;26.23;19.42;;;19.40;99.90;;;;;;5011593;28;20029;-72
2023/08/13 05:14:03;;;;;;;27.85;24.52;;;19.40;99.90;;;;;;5012860;28;20053;-73
2023/08/13 05:16:29;;;;;;;24.58;18.92;;;19.30;99.90;;;;;;5011060;28;20494;-73
2023/08/13 05:18:55;;;;;;;20.42;14.57;;;19.30;99.90;;;;;;5012737;28;20038;-73
2023/08/13 05:21:22;;;;;;;18.88;15.30;;;19.30;99.90;;;;;;5012867;28;20475;-73
2023/08/13 05:23:49;;;;;;;24.90;22.33;;;19.40;99.90;;;;;;5011483;28;20384;-73
2023/08/13 05:26:15;;;;;;;26.90;20.00;;;19.40;99.90;;;;;;5012738;28;20026;-73
2023/08/13 05:28:41;;;;;;;27.08;20.10;;;19.30;99.90;;;;;;5012208;28;20045;-73
2023/08/13 05:31:07;;;;;;;32.03;28.75;;;19.40;99.90;;;;;;5010024;28;20030;-73
2023/08/13 05:33:34;;;;;;;28.42;25.63;;;19.30;99.90;;;;;;5011337;28;20034;-72
2023/08/13 05:36:00;;;;;;;24.65;19.70;;;19.40;99.90;;;;;;5012725;28;20356;-73
2023/08/13 05:38:26;;;;;;;34.03;30.55;;;19.40;99.90;;;;;;5012310;28;20041;-73
2023/08/13 05:40:52;;;;;;;23.48;19.98;;;19.40;99.90;;;;;;5011953;28;20403;-72
2023/08/13 05:43:18;;;;;;;21.48;18.23;;;19.40;99.90;;;;;;5010965;28;20034;-73
2023/08/13 05:45:44;;;;;;;23.83;18.98;;;19.50;99.90;;;;;;5010509;28;20034;-73
2023/08/13 05:48:10;;;;;;;30.30;19.52;;;19.60;99.90;;;;;;5012572;28;20029;-72
2023/08/13 05:50:36;;;;;;;17.92;15.07;;;19.70;99.90;;;;;;5012079;28;20041;-73
2023/08/13 05:53:02;;;;;;;29.58;26.70;;;19.80;99.90;;;;;;5012070;28;20049;-73
2023/08/13 05:55:29;;;;;;;40.30;36.95;;;19.80;99.90;;;;;;5012104;28;20508;-73
2023/08/13 05:57:55;;;;;;;35.13;31.73;;;19.90;99.90;;;;;;5010821;28;20042;-73
2023/08/13 06:00:21;;;;;;;23.70;19.23;;;20.00;99.90;;;;;;5011387;28;20376;-73
2023/08/13 06:02:47;;;;;;;49.55;45.30;;;20.00;99.90;;;;;;5011033;28;20042;-73
2023/08/13 06:05:13;;;;;;;54.55;50.28;;;20.00;99.90;;;;;;5010668;28;20026;-73
2023/08/13 06:07:39;;;;;;;64.90;60.53;;;20.10;99.90;;;;;;5012207;28;20034;-73
2023/08/13 06:10:06;;;;;;;65.00;60.00;;;20.20;99.90;;;;;;5012266;28;20033;-73
2023/08/13 06:12:32;;;;;;;60.05;55.75;;;20.20;99.90;;;;;;5010088;28;20042;-74
2023/08/13 06:14:58;;;;;;;58.33;54.00;;;20.20;99.90;;;;;;5010797;28;20038;-72
2023/08/13 06:17:24;;;;;;;58.28;53.83;;;20.20;99.90;;;;;;5010240;28;20052;-73
2023/08/13 06:19:51;;;;;;;51.60;47.33;;;20.20;99.90;;;;;;5010946;28;20510;-75
2023/08/13 06:22:17;;;;;;;70.75;65.70;;;20.20;99.90;;;;;;5010591;28;20034;-73
2023/08/13 06:24:43;;;;;;;46.13;41.80;;;20.20;99.90;;;;;;5010935;28;20497;-73
2023/08/13 06:27:09;;;;;;;33.50;30.52;;;20.30;99.90;;;;;;5010313;28;20030;-73
2023/08/13 06:29:35;;;;;;;27.48;24.67;;;20.40;99.90;;;;;;5010690;28;20030;-73
2023/08/13 06:32:01;;;;;;;31.98;28.65;;;20.60;99.90;;;;;;5011270;28;20506;-73
2023/08/13 06:34:27;;;;;;;39.75;35.80;;;20.70;99.90;;;;;;5011759;28;20070;-73
2023/08/13 06:36:53;;;;;;;38.72;35.22;;;20.80;99.90;;;;;;5011599;28;20501;-73
2023/08/13 06:39:21;;;;;;;45.25;41.33;;;20.90;99.90;;;;;;5011882;28;20030;-73
2023/08/13 06:41:47;;;;;;;52.60;48.70;;;21.10;99.90;;;;;;4995541;28;20021;-73
2023/08/13 06:44:20;;;;;;;49.50;45.67;;;21.30;99.90;;;;;;5015611;28;20033;-73
2023/08/13 06:46:47;;;;;;;53.35;49.25;;;21.40;99.90;;;;;;5013408;28;20053;-73
2023/08/13 06:49:13;;;;;;;64.90;60.03;;;21.50;99.90;;;;;;5014081;28;20045;-73
2023/08/13 06:51:39;;;;;;;50.33;46.10;;;21.60;99.90;;;;;;5014817;28;20046;-73
2023/08/13 06:54:06;;;;;;;47.35;43.55;;;21.80;99.90;;;;;;5015094;28;20045;-73
2023/08/13 06:56:33;;;;;;;69.10;64.22;;;22.00;99.90;;;;;;5014607;28;20026;-73
2023/08/13 06:58:59;;;;;;;97.90;91.72;;;22.20;99.90;;;;;;5015225;28;20467;-73
2023/08/13 07:01:25;;;;;;;66.55;61.95;;;22.40;99.90;;;;;;5013243;28;20041;-73
2023/08/13 07:03:51;;;;;;;63.47;58.78;;;22.50;99.90;;;;;;5014951;28;20038;-73
2023/08/13 07:06:17;;;;;;;53.83;49.80;;;22.70;99.90;;;;;;5013358;28;20022;-73
2023/08/13 07:08:43;;;;;;;51.40;47.50;;;22.80;99.90;;;;;;4997237;28;20057;-73
2023/08/13 07:11:10;;;;;;;51.78;47.92;;;22.90;99.90;;;;;;5014288;28;20029;-73
2023/08/13 07:13:36;;;;;;;49.63;45.90;;;23.00;99.90;;;;;;5014695;28;20037;-73
2023/08/13 07:16:02;;;;;;;48.08;43.88;;;23.20;99.90;;;;;;5013995;28;20037;-73
2023/08/13 07:18:28;;;;;;;60.75;56.53;;;23.20;99.90;;;;;;5014903;28;20042;-73
2023/08/13 07:20:54;;;;;;;61.30;56.75;;;23.40;99.90;;;;;;5013261;28;20026;-73
2023/08/13 07:23:20;;;;;;;61.47;56.95;;;23.60;99.90;;;;;;5014778;28;20038;-73
2023/08/13 07:25:46;;;;;;;80.32;74.60;;;23.70;99.90;;;;;;5012711;28;20025;-73
2023/08/13 07:28:13;;;;;;;83.72;78.32;;;23.80;99.90;;;;;;5014665;28;20037;-73
2023/08/13 07:30:39;;;;;;;98.90;92.85;;;23.90;99.90;;;;;;5013578;28;20030;-74
2023/08/13 07:33:05;;;;;;;126.10;119.20;;;24.10;99.90;;;;;;5013038;28;20479;-73
2023/08/13 07:35:31;;;;;;;123.60;116.00;;;24.30;99.90;;;;;;5014279;28;20053;-75
2023/08/13 07:37:57;;;;;;;99.20;93.05;;;24.40;99.90;;;;;;5013174;28;20037;-73
2023/08/13 07:40:24;;;;;;;110.40;103.28;;;24.50;99.90;;;;;;5012605;28;20026;-73
2023/08/13 07:42:50;;;;;;;104.53;98.38;;;24.60;99.90;;;;;;4996707;28;20034;-73
2023/08/13 07:45:16;;;;;;;95.90;90.15;;;24.80;99.90;;;;;;5012274;28;20030;-73
2023/08/13 07:47:42;;;;;;;86.20;81.05;;;24.90;99.90;;;;;;5014190;28;20037;-73
2023/08/13 07:50:08;;;;;;;90.03;84.32;;;25.00;99.90;;;;;;5014158;28;20387;-74
2023/08/13 07:52:35;;;;;;;92.65;86.75;;;24.90;99.90;;;;;;5011902;28;20068;-73
2023/08/13 07:55:02;;;;;;;92.18;86.22;;;24.80;99.90;;;;;;5012419;28;20045;-74
2023/08/13 07:57:28;;;;;;;90.80;85.22;;;24.80;99.90;;;;;;5013733;28;20034;-74
2023/08/13 07:59:54;;;;;;;84.43;79.20;;;24.60;99.90;;;;;;5013907;28;20371;-74
2023/08/13 08:02:20;;;;;;;93.40;87.97;;;24.50;99.90;;;;;;5013178;28;20029;-74
2023/08/13 08:04:47;;;;;;;87.25;81.75;;;24.40;99.90;;;;;;5013920;28;20395;-74
2023/08/13 08:07:13;;;;;;;106.90;100.45;;;24.30;99.90;;;;;;5013531;28;20029;-73
2023/08/13 08:09:39;;;;;;;78.93;73.90;;;24.30;99.90;;;;;;5012267;28;20533;-73
2023/08/13 08:12:05;;;;;;;71.03;66.05;;;24.40;99.90;;;;;;5013469;28;20041;-73
2023/08/13 08:14:31;;;;;;;82.78;77.22;;;24.50;99.90;;;;;;5013571;28;20049;-73
2023/08/13 08:17:04;;;;;;;87.50;81.38;;;24.60;99.90;;;;;;5012736;28;20037;-74
2023/08/13 08:19:31;;;;;;;81.15;76.28;;;24.70;99.90;;;;;;5013532;28;20026;-74
2023/08/13 08:21:58;;;;;;;101.30;95.07;;;24.70;99.90;;;;;;5012132;28;20497;-74
2023/08/13 08:24:25;;;;;;;91.63;86.10;;;24.70;99.90;;;;;;5012051;28;20029;-73
2023/08/13 08:26:51;;;;;;;96.55;90.70;;;24.70;99.90;;;;;;5012055;28;20040;-73
2023/08/13 08:29:17;;;;;;;93.70;87.85;;;24.70;99.90;;;;;;5012156;28;20395;-73
2023/08/13 08:31:43;;;;;;;97.50;91.55;;;24.80;99.90;;;;;;5012544;28;20038;-74
2023/08/13 08:34:09;;;;;;;94.75;88.88;;;24.90;99.90;;;;;;5012233;28;20423;-74
2023/08/13 08:36:35;;;;;;;88.40;83.00;;;24.90;99.90;;;;;;5013004;28;20030;-74
2023/08/13 08:39:03;;;;;;;93.93;88.30;;;24.90;99.90;;;;;;5012788;28;20021;-74
2023/08/13 08:41:31;;;;;;;114.13;107.25;;;25.00;99.90;;;;;;5013050;28;20022;-74
2023/08/13 08:43:58;;;;;;;104.68;98.70;;;25.00;99.90;;;;;;5011913;28;20032;-74
2023/08/13 08:46:27;;;;;;;93.97;88.55;;;25.00;99.90;;;;;;5011153;28;20068;-74
2023/08/13 08:48:53;;;;;;;107.32;101.30;;;24.90;99.90;;;;;;5011725;28;20033;-74
2023/08/13 08:51:21;;;;;;;99.88;94.57;;;24.90;99.90;;;;;;5011181;28;20053;-73
2023/08/13 08:53:48;;;;;;;117.45;110.38;;;25.00;99.90;;;;;;5012731;28;20050;-74
2023/08/13 08:56:14;;;;;;;134.57;127.18;;;25.20;99.90;;;;;;5011673;28;20025;-73
2023/08/13 08:58:40;;;;;;;136.75;129.32;;;25.40;99.90;;;;;;5013549;28;20109;-74
2023/08/13 09:01:07;;;;;;;129.50;122.45;;;25.50;99.90;;;;;;5012262;28;20042;-73
2023/08/13 09:03:33;;;;;;;140.38;132.93;;;25.60;99.90;;;;;;4995102;28;20037;-73
2023/08/13 09:05:59;;;;;;;192.45;182.27;;;25.70;99.90;;;;;;5012148;28;20029;-74
2023/08/13 09:08:25;;;;;;;209.80;198.85;;;25.70;99.90;;;;;;5012802;28;20034;-74
2023/08/13 09:10:52;;;;;;;251.95;238.50;;;25.80;99.90;;;;;;5011451;28;20033;-73
2023/08/13 09:13:18;;;;;;;322.55;305.45;;;25.90;99.90;;;;;;5012570;28;20466;-74
2023/08/13 09:15:47;;;;;;;236.90;224.68;;;26.00;99.90;;;;;;5011988;28;20415;-73
2023/08/13 09:18:14;;;;;;;241.80;229.48;;;25.90;99.90;;;;;;5011749;28;20033;-74
2023/08/13 09:20:44;;;;;;;237.85;225.45;;;26.00;99.90;;;;;;5011954;28;20037;-74
2023/08/13 09:23:10;;;;;;;227.25;215.40;;;26.10;99.90;;;;;;5012735;28;20044;-74
2023/08/13 09:25:37;;;;;;;251.73;238.57;;;26.20;99.90;;;;;;5012260;28;20030;-74
2023/08/13 09:28:03;;;;;;;229.27;217.43;;;26.10;99.90;;;;;;5012609;28;20030;-74
2023/08/13 09:30:31;;;;;;;248.93;236.30;;;26.10;99.90;;;;;;5010356;28;20059;-74
2023/08/13 09:32:58;;;;;;;261.50;247.45;;;26.10;99.90;;;;;;5011165;28;20042;-73
2023/08/13 09:35:25;;;;;;;250.48;237.65;;;26.10;99.90;;;;;;5010682;28;20057;-74
2023/08/13 09:37:52;;;;;;;217.40;205.98;;;26.20;99.90;;;;;;5011148;28;20030;-73
2023/08/13 09:40:18;;;;;;;219.38;207.93;;;26.40;99.90;;;;;;4994745;28;20028;-74
2023/08/13 09:42:44;;;;;;;266.48;252.50;;;26.50;99.90;;;;;;5011034;28;20038;-74
2023/08/13 09:45:11;;;;;;;257.15;243.75;;;26.50;99.90;;;;;;5010298;28;20033;-74
2023/08/13 09:47:39;;;;;;;242.93;230.45;;;26.60;99.90;;;;;;5011217;28;20038;-74
2023/08/13 09:50:06;;;;;;;169.02;159.35;;;26.70;99.90;;;;;;5010954;28;20036;-74
2023/08/13 09:52:32;;;;;;;134.45;126.80;;;26.80;99.90;;;;;;5010543;28;20038;-74
2023/08/13 09:55:08;;;;;;;139.07;131.63;;;26.80;99.90;;;;;;5011013;28;20038;-73
2023/08/13 09:57:34;;;;;;;137.43;129.98;;;26.80;99.90;;;;;;5011933;28;20034;-73
2023/08/13 10:00:00;;;;;;;135.10;127.47;;;26.80;99.90;;;;;;5011172;28;20034;-73
2023/08/13 10:02:27;;;;;;;143.40;135.95;;;27.00;99.90;;;;;;5010079;28;20038;-74
2023/08/13 10:04:53;;;;;;;149.10;141.05;;;27.10;99.90;;;;;;5010799;28;20037;-74
2023/08/13 10:07:19;;;;;;;161.88;153.13;;;27.20;99.90;;;;;;5010690;28;20052;-74
2023/08/13 10:09:45;;;;;;;145.77;137.70;;;27.30;99.90;;;;;;5010532;28;20057;-74
2023/08/13 10:12:11;;;;;;;146.80;138.73;;;27.50;99.90;;;;;;5010736;28;20052;-73
2023/08/13 10:14:37;;;;;;;141.05;133.38;;;27.60;99.90;;;;;;5012030;28;20037;-73
2023/08/13 10:17:05;;;;;;;141.75;134.40;;;27.70;99.90;;;;;;5012245;28;20521;-74
2023/08/13 10:19:37;;;;;;;154.55;146.27;;;27.80;99.90;;;;;;5014432;28;20034;-72
2023/08/13 10:22:03;;;;;;;170.25;161.35;;;27.70;99.90;;;;;;5014349;28;20467;-74
2023/08/13 10:24:30;;;;;;;168.63;159.63;;;27.60;99.90;;;;;;5014582;28;20033;-74
2023/08/13 10:26:58;;;;;;;174.60;165.20;;;27.50;99.90;;;;;;5014336;28;20037;-73
2023/08/13 10:29:25;;;;;;;192.48;182.13;;;27.40;99.90;;;;;;5014501;28;20026;-74
2023/08/13 10:32:01;;;;;;;162.60;153.75;;;27.30;99.90;;;;;;5014661;28;20026;-74
2023/08/13 10:34:40;;;;;;;189.50;179.23;;;27.30;99.90;;;;;;5013991;28;20048;-74
2023/08/13 10:37:22;;;;;;;152.35;144.23;;;27.30;99.90;;;;;;5014011;28;20026;-74
2023/08/13 10:40:08;;;;;;;151.05;142.75;;;27.20;99.90;;;;;;5015439;28;20030;-73
2023/08/13 10:42:36;;;;;;;143.52;135.65;;;27.10;99.90;;;;;;5015702;28;20037;-74
2023/08/13 10:45:06;;;;;;;167.27;158.40;;;27.00;99.90;;;;;;5015315;28;20037;-74
2023/08/13 10:47:53;;;;;;;155.48;147.30;;;27.10;99.90;;;;;;5012916;28;20375;-73
2023/08/13 10:50:27;;;;;;;135.40;128.35;;;27.20;99.90;;;;;;5014941;28;20030;-75
2023/08/13 10:53:04;;;;;;;140.15;132.75;;;27.20;99.90;;;;;;4997537;28;20369;-75
2023/08/13 10:55:38;;;;;;;145.82;137.95;;;27.20;99.90;;;;;;5013833;28;20747;-74
2023/08/13 10:58:04;;;;;;;128.50;121.32;;;27.10;99.90;;;;;;5014067;28;20029;-74
2023/08/13 11:00:31;;;;;;;122.38;115.97;;;27.10;99.90;;;;;;5013037;28;20665;-74
2023/08/13 11:03:00;;;;;;;130.90;124.18;;;27.10;99.90;;;;;;5013434;28;20034;-74
2023/08/13 11:05:26;;;;;;;129.48;122.70;;;27.10;99.90;;;;;;5014738;28;20482;-74
2023/08/13 11:07:52;;;;;;;168.77;159.82;;;27.10;99.90;;;;;;4997261;28;20045;-74
2023/08/13 11:10:19;;;;;;;149.60;141.50;;;27.20;99.90;;;;;;5013449;28;20036;-74
2023/08/13 11:12:46;;;;;;;156.13;147.95;;;27.30;99.90;;;;;;5013759;28;20029;-74
2023/08/13 11:15:12;;;;;;;134.18;127.03;;;27.40;99.90;;;;;;5012757;28;20041;-74
2023/08/13 11:17:46;;;;;;;130.52;123.68;;;27.60;99.90;;;;;;5013371;28;20053;-74
2023/08/13 11:20:14;;;;;;;130.30;123.65;;;27.60;99.90;;;;;;4997339;28;20056;-74
2023/08/13 11:22:41;;;;;;;137.25;129.98;;;27.60;99.90;;;;;;5014694;28;20387;-74
2023/08/13 11:25:08;;;;;;;132.20;125.20;;;27.60;99.90;;;;;;5013441;28;20029;-75
2023/08/13 11:27:37;;;;;;;137.02;129.65;;;27.60;99.90;;;;;;5012198;28;20395;-74
2023/08/13 11:30:04;;;;;;;138.48;131.10;;;27.70;99.90;;;;;;5012841;28;20030;-74
2023/08/13 11:32:30;;;;;;;144.57;137.10;;;27.70;99.90;;;;;;5012488;28;20030;-74
2023/08/13 11:34:58;;;;;;;155.07;147.18;;;27.60;99.90;;;;;;5014293;28;20042;-74
2023/08/13 11:37:24;;;;;;;164.13;155.63;;;27.70;99.90;;;;;;5013065;28;20041;-74
2023/08/13 11:39:50;;;;;;;144.73;137.30;;;27.50;99.90;;;;;;5012970;28;20030;-74
2023/08/13 11:42:16;;;;;;;155.60;147.23;;;27.50;99.90;;;;;;5013854;28;20402;-74
2023/08/13 11:44:47;;;;;;;164.02;155.40;;;27.40;99.90;;;;;;5013179;28;20029;-74
2023/08/13 11:47:13;;;;;;;158.70;150.38;;;27.20;99.90;;;;;;5011995;28;20499;-75
2023/08/13 11:49:42;;;;;;;177.32;167.93;;;27.20;99.90;;;;;;5012732;28;20034;-74
2023/08/13 11:52:10;;;;;;;191.82;182.00;;;27.10;99.90;;;;;;5012385;28;20109;-75
2023/08/13 11:54:37;;;;;;;185.98;176.45;;;27.10;99.90;;;;;;5012886;28;20487;-74
2023/08/13 11:57:03;;;;;;;138.68;131.52;;;27.20;99.90;;;;;;5012448;28;20383;-74
2023/08/13 11:59:32;;;;;;;148.43;140.70;;;27.20;99.90;;;;;;5012615;28;20045;-74
2023/08/13 12:01:59;;;;;;;164.30;155.70;;;27.30;99.90;;;;;;5012783;28;20041;-74
2023/08/13 12:04:32;;;;;;;159.77;151.38;;;27.40;99.90;;;;;;5012684;28;20034;-74
2023/08/13 12:06:58;;;;;;;151.98;143.88;;;27.50;99.90;;;;;;5012336;28;20081;-74
2023/08/13 12:09:24;;;;;;;134.45;127.47;;;27.60;99.90;;;;;;5012667;28;20030;-75
2023/08/13 12:11:54;;;;;;;140.70;133.30;;;27.80;99.90;;;;;;5012223;28;20049;-74
2023/08/13 12:14:20;;;;;;;138.07;131.00;;;28.00;99.90;;;;;;4995525;28;20045;-74
2023/08/13 12:16:46;;;;;;;130.73;123.85;;;28.20;99.80;;;;;;5013062;28;20041;-74
2023/08/13 12:19:12;;;;;;;141.18;133.82;;;28.20;99.80;;;;;;5013564;28;20034;-74